Time;durP1;ratioP1;P1;durP2;ratioP2;P2;SDS_P1;SDS_P2;PMS_P1;PMS_P2;Temp;Humidity;BMP_temperature;BMP_pressure;BME280_temperature;BME280_humidity;BME280_pressure;Samples;Min_cycle;Max_cycle;Signal;HPM_P1;HPM_P2
2023/09/25 00:01:39;;;;;;;3.05;1.60;;;16.40;93.70;;;;;;5036992;28;20029;-70
2023/09/25 00:04:04;;;;;;;3.25;1.80;;;16.40;93.90;;;;;;5037093;28;20035;-70
2023/09/25 00:06:30;;;;;;;2.95;1.75;;;16.40;93.80;;;;;;5036915;28;20096;-70
2023/09/25 00:08:56;;;;;;;3.15;1.80;;;16.40;94.00;;;;;;5037029;28;20431;-70
2023/09/25 00:11:22;;;;;;;4.80;2.00;;;16.50;93.70;;;;;;5036609;28;20022;-70
2023/09/25 00:13:47;;;;;;;2.95;1.73;;;16.50;93.70;;;;;;5041367;28;20112;-70
2023/09/25 00:16:14;;;;;;;2.75;1.60;;;16.40;94.00;;;;;;5053857;28;20049;-70
2023/09/25 00:18:40;;;;;;;2.88;1.50;;;16.50;93.90;;;;;;5043488;28;20018;-70
2023/09/25 00:21:06;;;;;;;3.67;1.90;;;16.50;94.30;;;;;;5043496;28;20045;-70
2023/09/25 00:23:31;;;;;;;3.25;1.73;;;16.50;94.30;;;;;;5043467;28;20026;-70
2023/09/25 00:26:05;;;;;;;5.38;2.00;;;16.50;93.00;;;;;;5043058;28;20057;-70
2023/09/25 00:28:31;;;;;;;3.30;1.85;;;16.50;93.50;;;;;;5041933;28;20033;-70
2023/09/25 00:30:56;;;;;;;3.00;1.70;;;16.60;94.20;;;;;;5043437;28;20021;-71
2023/09/25 00:33:22;;;;;;;3.55;2.03;;;16.60;94.30;;;;;;5043415;28;20393;-71
2023/09/25 00:35:48;;;;;;;3.03;1.65;;;16.60;95.40;;;;;;5042021;28;20404;-71
2023/09/25 00:38:14;;;;;;;4.30;1.63;;;16.60;95.60;;;;;;5043364;28;20044;-71
2023/09/25 00:40:39;;;;;;;4.90;1.80;;;16.70;96.20;;;;;;5041478;28;20056;-71
2023/09/25 00:43:08;;;;;;;4.88;2.22;;;16.70;96.00;;;;;;5043196;28;20068;-71
2023/09/25 00:45:38;;;;;;;3.45;1.85;;;16.70;96.20;;;;;;5043438;28;20071;-71
2023/09/25 00:48:05;;;;;;;3.30;2.00;;;16.70;96.00;;;;;;5041850;28;20025;-71
2023/09/25 00:50:32;;;;;;;3.40;2.00;;;16.80;96.30;;;;;;5043353;28;20017;-71
2023/09/25 00:53:06;;;;;;;4.53;1.90;;;16.80;96.10;;;;;;5043175;28;20026;-71
2023/09/25 00:55:33;;;;;;;3.20;2.20;;;16.80;96.00;;;;;;5044944;28;20018;-71
2023/09/25 00:58:00;;;;;;;3.40;2.05;;;16.80;96.30;;;;;;5041485;28;20497;-71
2023/09/25 01:00:25;;;;;;;3.38;1.90;;;16.80;96.40;;;;;;5041881;28;20032;-72
2023/09/25 01:02:51;;;;;;;3.28;1.75;;;16.90;97.10;;;;;;5042825;28;20548;-71
2023/09/25 01:05:17;;;;;;;3.97;2.13;;;16.90;96.80;;;;;;5041946;28;20040;-71
2023/09/25 01:07:43;;;;;;;2.65;1.70;;;16.90;96.90;;;;;;5042967;28;20029;-71
2023/09/25 01:10:12;;;;;;;4.72;1.80;;;16.90;97.10;;;;;;5042753;28;20079;-71
2023/09/25 01:12:37;;;;;;;2.97;1.88;;;17.00;97.20;;;;;;5042726;28;20049;-71
2023/09/25 01:15:04;;;;;;;3.05;1.92;;;17.00;97.40;;;;;;5048986;28;20041;-72
2023/09/25 01:17:31;;;;;;;2.85;1.80;;;17.00;97.60;;;;;;5044773;28;20195;-71
2023/09/25 01:19:57;;;;;;;3.85;1.90;;;17.00;97.60;;;;;;5043069;28;20494;-71
2023/09/25 01:22:23;;;;;;;4.03;1.88;;;17.00;97.70;;;;;;5041549;28;20029;-71
2023/09/25 01:24:49;;;;;;;4.65;1.88;;;17.00;97.90;;;;;;5039704;28;20025;-71
2023/09/25 01:27:15;;;;;;;3.40;2.00;;;17.00;98.40;;;;;;5039330;28;20482;-72
2023/09/25 01:29:40;;;;;;;3.60;1.80;;;17.00;98.50;;;;;;5039843;28;20025;-72
2023/09/25 01:32:06;;;;;;;2.90;1.80;;;17.00;98.00;;;;;;5039474;28;20517;-72
2023/09/25 01:34:31;;;;;;;3.67;1.60;;;17.00;98.70;;;;;;5039697;28;20022;-72
2023/09/25 01:36:57;;;;;;;3.30;1.67;;;17.00;98.90;;;;;;5039551;28;20028;-72
2023/09/25 01:39:23;;;;;;;3.28;1.90;;;17.00;99.20;;;;;;5039661;28;20033;-72
2023/09/25 01:41:49;;;;;;;3.08;1.60;;;17.10;99.90;;;;;;5039092;28;20021;-72
2023/09/25 01:44:14;;;;;;;3.33;1.85;;;17.10;99.60;;;;;;5039743;28;20419;-72
2023/09/25 01:46:42;;;;;;;3.35;1.80;;;17.10;99.90;;;;;;5039221;28;20026;-71
2023/09/25 01:49:08;;;;;;;4.43;1.60;;;17.10;99.90;;;;;;5039436;28;20061;-70
2023/09/25 01:51:34;;;;;;;3.22;1.75;;;17.10;99.90;;;;;;5039286;28;20478;-70
2023/09/25 01:53:59;;;;;;;3.00;1.60;;;17.10;99.90;;;;;;5038031;28;20053;-70
2023/09/25 01:56:25;;;;;;;2.95;1.73;;;17.10;99.90;;;;;;5040827;28;20061;-70
2023/09/25 01:58:51;;;;;;;3.78;2.00;;;17.10;99.90;;;;;;5038968;28;20568;-71
2023/09/25 02:01:16;;;;;;;4.43;1.90;;;17.10;99.90;;;;;;5039150;28;20033;-72
2023/09/25 02:03:42;;;;;;;2.38;1.50;;;17.10;99.90;;;;;;5039183;28;20025;-71
2023/09/25 02:06:08;;;;;;;2.30;1.58;;;17.20;99.90;;;;;;5037627;28;20526;-70
2023/09/25 02:08:34;;;;;;;3.25;1.65;;;17.20;99.90;;;;;;5039042;28;20398;-70
2023/09/25 02:10:59;;;;;;;3.65;1.83;;;17.20;99.90;;;;;;5038566;28;20029;-68
2023/09/25 02:13:25;;;;;;;2.45;1.55;;;17.20;99.90;;;;;;5038876;28;20513;-69
2023/09/25 02:15:51;;;;;;;2.88;1.63;;;17.20;99.90;;;;;;5047687;28;20064;-67
2023/09/25 02:18:17;;;;;;;3.35;1.63;;;17.20;99.90;;;;;;5036842;28;20037;-69
2023/09/25 02:20:43;;;;;;;4.40;1.52;;;17.30;99.90;;;;;;5038583;28;20060;-72
2023/09/25 02:23:09;;;;;;;2.72;1.45;;;17.20;99.90;;;;;;5038965;28;20501;-70
2023/09/25 02:25:34;;;;;;;3.28;1.45;;;17.20;99.90;;;;;;5038350;28;20060;-71
2023/09/25 02:28:00;;;;;;;5.88;1.70;;;17.20;99.90;;;;;;5037268;28;20036;-70
2023/09/25 02:30:25;;;;;;;2.97;1.45;;;17.10;99.90;;;;;;5038521;28;20504;-70
2023/09/25 02:32:51;;;;;;;4.30;1.67;;;17.10;99.90;;;;;;5038581;28;20045;-70
2023/09/25 02:35:17;;;;;;;3.95;1.30;;;17.20;99.90;;;;;;5038210;28;20108;-70
2023/09/25 02:37:44;;;;;;;2.97;1.50;;;17.10;99.90;;;;;;5038578;28;20025;-69
2023/09/25 02:40:13;;;;;;;3.20;1.42;;;17.10;99.90;;;;;;5037967;28;20029;-70
2023/09/25 02:42:40;;;;;;;4.50;1.52;;;17.10;99.90;;;;;;5036807;28;20485;-70
2023/09/25 02:45:06;;;;;;;2.72;1.42;;;17.10;99.90;;;;;;5038048;28;20040;-69
2023/09/25 02:47:31;;;;;;;4.18;1.70;;;17.10;99.90;;;;;;5038426;28;20014;-69
2023/09/25 02:49:57;;;;;;;3.47;1.50;;;17.20;99.90;;;;;;5038297;28;20025;-70
2023/09/25 02:52:23;;;;;;;3.00;1.40;;;17.20;99.90;;;;;;5036957;28;20025;-69
2023/09/25 02:54:49;;;;;;;4.78;1.48;;;17.20;99.90;;;;;;5039926;28;20075;-69
2023/09/25 02:57:14;;;;;;;3.22;1.40;;;17.20;99.90;;;;;;5036671;28;20045;-69
2023/09/25 02:59:40;;;;;;;3.65;1.70;;;17.20;99.90;;;;;;5038226;28;20030;-69
2023/09/25 03:02:06;;;;;;;3.97;1.60;;;17.20;99.90;;;;;;5038109;28;20041;-70
2023/09/25 03:04:31;;;;;;;2.63;1.40;;;17.20;99.90;;;;;;5037983;28;20022;-70
2023/09/25 03:06:57;;;;;;;2.80;1.33;;;17.20;99.90;;;;;;5038102;28;20028;-69
2023/09/25 03:09:23;;;;;;;5.28;1.60;;;17.20;99.90;;;;;;5038008;28;20045;-70
2023/09/25 03:11:48;;;;;;;2.85;1.35;;;17.10;99.90;;;;;;5036356;28;20026;-70
2023/09/25 03:14:14;;;;;;;4.53;1.35;;;17.00;99.90;;;;;;5038099;28;20025;-69
2023/09/25 03:16:41;;;;;;;3.03;1.50;;;16.90;99.90;;;;;;5046678;28;20064;-69
2023/09/25 03:19:06;;;;;;;4.10;1.38;;;16.90;99.90;;;;;;5035813;28;20427;-69
2023/09/25 03:21:32;;;;;;;3.42;1.30;;;16.90;99.90;;;;;;5037739;28;20022;-69
2023/09/25 03:23:57;;;;;;;3.45;1.55;;;16.90;99.90;;;;;;5037655;28;20409;-69
2023/09/25 03:26:23;;;;;;;2.63;1.27;;;16.80;99.90;;;;;;5037409;28;20018;-70
2023/09/25 03:28:49;;;;;;;3.97;1.30;;;16.90;99.90;;;;;;5037510;28;20037;-69
2023/09/25 03:31:15;;;;;;;3.75;1.35;;;16.90;99.90;;;;;;5037741;28;20025;-68
2023/09/25 03:33:41;;;;;;;3.28;1.60;;;17.00;99.90;;;;;;5037515;28;20021;-69
2023/09/25 03:36:07;;;;;;;2.67;1.35;;;17.00;99.90;;;;;;5037437;28;20028;-69
2023/09/25 03:38:34;;;;;;;3.50;1.30;;;17.00;99.90;;;;;;5037396;28;20512;-69
2023/09/25 03:41:00;;;;;;;2.67;1.23;;;17.10;99.90;;;;;;5037082;28;20025;-69
2023/09/25 03:43:26;;;;;;;2.10;1.25;;;17.10;99.90;;;;;;5037298;28;20025;-69
2023/09/25 03:45:52;;;;;;;3.90;1.42;;;17.10;99.90;;;;;;5037415;28;20038;-69
2023/09/25 03:48:18;;;;;;;3.92;1.33;;;17.10;99.90;;;;;;5036736;28;20085;-69
2023/09/25 03:50:44;;;;;;;2.78;1.50;;;17.10;99.90;;;;;;5037465;28;20076;-69
2023/09/25 03:53:11;;;;;;;2.90;1.35;;;17.20;99.90;;;;;;5037288;28;20049;-69
2023/09/25 03:55:38;;;;;;;2.10;1.15;;;17.20;99.90;;;;;;5038993;28;20029;-69
2023/09/25 03:58:03;;;;;;;2.60;1.02;;;17.20;99.90;;;;;;5037129;28;20069;-69
2023/09/25 04:00:29;;;;;;;2.10;1.20;;;17.10;99.90;;;;;;5037337;28;20501;-69
2023/09/25 04:02:54;;;;;;;2.90;1.27;;;17.00;99.90;;;;;;5036979;28;20044;-69
2023/09/25 04:05:20;;;;;;;4.15;1.48;;;16.90;99.90;;;;;;5036034;28;20029;-69
2023/09/25 04:07:46;;;;;;;2.28;1.10;;;16.80;99.90;;;;;;5036995;28;20440;-69
2023/09/25 04:10:11;;;;;;;3.20;1.23;;;16.70;99.90;;;;;;5036936;28;20098;-70
2023/09/25 04:12:38;;;;;;;2.58;1.30;;;16.70;99.90;;;;;;5035804;28;20049;-70
2023/09/25 04:15:08;;;;;;;3.08;1.50;;;16.60;99.90;;;;;;5042906;28;20017;-70
2023/09/25 04:17:33;;;;;;;2.53;1.33;;;16.60;99.90;;;;;;5038906;28;20109;-70
2023/09/25 04:19:59;;;;;;;3.50;1.50;;;16.60;99.90;;;;;;5037058;28;20068;-71
2023/09/25 04:22:25;;;;;;;2.33;1.10;;;16.60;99.90;;;;;;5037028;28;20033;-70
2023/09/25 04:24:52;;;;;;;5.28;1.20;;;16.70;99.90;;;;;;5036812;28;20064;-70
2023/09/25 04:27:18;;;;;;;2.13;1.10;;;16.70;99.90;;;;;;5036911;28;20028;-69
2023/09/25 04:29:44;;;;;;;3.00;1.38;;;16.70;99.90;;;;;;5037097;28;20497;-69
2023/09/25 04:32:10;;;;;;;3.33;1.20;;;16.70;99.90;;;;;;5036829;28;20072;-69
2023/09/25 04:34:36;;;;;;;2.75;1.30;;;16.70;99.90;;;;;;5037118;28;20025;-69
2023/09/25 04:37:03;;;;;;;2.80;1.23;;;16.80;99.90;;;;;;5036822;28;20021;-70
2023/09/25 04:39:32;;;;;;;2.25;1.20;;;16.80;99.90;;;;;;5036869;28;20021;-70
2023/09/25 04:41:58;;;;;;;4.82;1.40;;;16.80;99.90;;;;;;5036396;28;20463;-70
2023/09/25 04:44:24;;;;;;;3.67;1.52;;;16.90;99.90;;;;;;5035578;28;20113;-70
2023/09/25 04:46:49;;;;;;;4.80;1.50;;;16.90;99.90;;;;;;5036786;28;20034;-70
2023/09/25 04:49:17;;;;;;;2.42;1.05;;;16.90;99.90;;;;;;5036767;28;20437;-70
2023/09/25 04:51:43;;;;;;;3.13;1.15;;;17.00;99.90;;;;;;5036638;28;20021;-70
2023/09/25 04:54:10;;;;;;;3.85;1.13;;;17.00;99.90;;;;;;5038122;28;20025;-69
2023/09/25 04:56:36;;;;;;;3.05;1.23;;;17.00;99.90;;;;;;5036830;28;20022;-70
2023/09/25 04:59:03;;;;;;;2.10;1.20;;;17.10;99.90;;;;;;5037007;28;20568;-69
2023/09/25 05:01:28;;;;;;;2.58;1.30;;;17.10;99.90;;;;;;5022826;28;20176;-70
2023/09/25 05:03:54;;;;;;;2.80;1.23;;;17.10;99.90;;;;;;5040548;28;20057;-69
2023/09/25 05:06:20;;;;;;;3.40;1.20;;;17.10;99.90;;;;;;5040349;28;20493;-69
2023/09/25 05:08:45;;;;;;;2.20;1.08;;;17.20;99.90;;;;;;5038688;28;20034;-69
2023/09/25 05:11:11;;;;;;;5.25;1.50;;;17.20;99.90;;;;;;5039910;28;20552;-69
2023/09/25 05:13:37;;;;;;;2.75;1.08;;;17.20;99.90;;;;;;5039335;28;20024;-69
2023/09/25 05:16:03;;;;;;;4.57;1.10;;;17.20;99.90;;;;;;5041976;28;20112;-69
2023/09/25 05:18:29;;;;;;;3.63;1.23;;;17.20;99.90;;;;;;5039557;28;20034;-69
2023/09/25 05:20:56;;;;;;;2.88;1.23;;;17.20;99.90;;;;;;5039561;28;20397;-69
2023/09/25 05:23:21;;;;;;;2.25;1.27;;;17.20;99.90;;;;;;5038175;28;20032;-69
2023/09/25 05:25:47;;;;;;;2.75;1.45;;;17.20;99.90;;;;;;5039069;28;20021;-69
2023/09/25 05:28:13;;;;;;;2.33;1.10;;;17.10;99.90;;;;;;5039330;28;20097;-70
2023/09/25 05:30:39;;;;;;;2.85;1.30;;;17.10;99.90;;;;;;5039375;28;20890;-70
2023/09/25 05:33:04;;;;;;;4.25;1.23;;;17.20;99.90;;;;;;5039231;28;20021;-69
2023/09/25 05:35:30;;;;;;;2.42;1.20;;;17.20;99.90;;;;;;5039292;28;20059;-69
2023/09/25 05:37:56;;;;;;;3.10;1.20;;;17.10;99.90;;;;;;5039222;28;20060;-70
2023/09/25 05:40:22;;;;;;;2.92;1.35;;;17.20;99.90;;;;;;5038701;28;20037;-70
2023/09/25 05:42:50;;;;;;;3.05;1.35;;;17.10;99.90;;;;;;5038775;28;20013;-70
2023/09/25 05:45:17;;;;;;;3.08;1.58;;;17.10;99.90;;;;;;5037272;28;20033;-70
2023/09/25 05:47:44;;;;;;;4.88;1.30;;;17.00;99.90;;;;;;5038716;28;20469;-70
2023/09/25 05:50:11;;;;;;;3.30;1.20;;;16.90;99.90;;;;;;5038751;28;20478;-70
2023/09/25 05:52:37;;;;;;;4.60;1.50;;;16.90;99.90;;;;;;5037576;28;20031;-69
2023/09/25 05:55:04;;;;;;;3.63;1.30;;;16.90;99.90;;;;;;5039715;28;20406;-69
2023/09/25 05:57:31;;;;;;;5.72;1.52;;;16.90;99.90;;;;;;5038607;28;20044;-68
2023/09/25 05:59:59;;;;;;;4.75;1.50;;;16.90;99.90;;;;;;5037848;28;20449;-69
2023/09/25 06:02:28;;;;;;;5.43;1.27;;;16.90;99.90;;;;;;5037503;28;20029;-68
2023/09/25 06:04:54;;;;;;;3.72;1.25;;;17.00;99.90;;;;;;5036241;28;20014;-69
2023/09/25 06:07:20;;;;;;;5.30;1.40;;;17.00;99.90;;;;;;5038638;28;20025;-69
2023/09/25 06:09:46;;;;;;;2.95;1.17;;;17.10;99.90;;;;;;5038328;28;20017;-69
2023/09/25 06:12:13;;;;;;;3.75;1.55;;;17.10;99.90;;;;;;5038616;28;20474;-68
2023/09/25 06:14:39;;;;;;;3.65;1.50;;;17.20;99.90;;;;;;5042542;28;20013;-69
2023/09/25 06:17:05;;;;;;;3.45;1.50;;;17.20;99.90;;;;;;5044600;28;20503;-70
2023/09/25 06:19:31;;;;;;;3.05;1.15;;;17.20;99.90;;;;;;5038396;28;20029;-70
2023/09/25 06:21:56;;;;;;;2.70;1.30;;;17.20;99.90;;;;;;5038483;28;20034;-70
2023/09/25 06:24:22;;;;;;;4.55;1.40;;;17.20;99.90;;;;;;5037263;28;20056;-69
2023/09/25 06:26:49;;;;;;;4.20;1.52;;;17.20;99.90;;;;;;5038323;28;20037;-69
2023/09/25 06:29:15;;;;;;;7.93;4.55;;;17.10;99.90;;;;;;5038423;28;20052;-68
2023/09/25 06:31:41;;;;;;;5.45;2.15;;;17.20;99.90;;;;;;5038017;28;20025;-70
2023/09/25 06:34:08;;;;;;;7.38;2.25;;;17.20;99.90;;;;;;5038503;28;20063;-71
2023/09/25 06:36:37;;;;;;;4.32;1.67;;;17.30;99.90;;;;;;5041266;28;20120;-71
2023/09/25 06:39:06;;;;;;;5.35;1.80;;;17.30;99.90;;;;;;5041393;28;20036;-71
2023/09/25 06:41:33;;;;;;;5.13;1.50;;;17.40;99.90;;;;;;5043096;28;20021;-70
2023/09/25 06:43:59;;;;;;;6.57;2.17;;;17.40;99.90;;;;;;5043711;28;20036;-65
2023/09/25 06:46:25;;;;;;;5.00;2.05;;;17.50;99.90;;;;;;5046120;28;20091;-65
2023/09/25 06:48:50;;;;;;;5.82;1.90;;;17.60;99.90;;;;;;5041106;28;20021;-65
2023/09/25 06:51:19;;;;;;;4.82;1.90;;;17.60;99.90;;;;;;5047154;28;20057;-65
2023/09/25 06:53:45;;;;;;;6.20;2.00;;;17.60;99.90;;;;;;5046722;28;20020;-65
2023/09/25 06:56:11;;;;;;;7.22;1.90;;;17.70;99.90;;;;;;5038649;28;20033;-65
2023/09/25 06:58:37;;;;;;;7.45;1.60;;;17.70;99.90;;;;;;5037286;28;20104;-65
2023/09/25 07:01:03;;;;;;;6.80;1.90;;;17.80;99.90;;;;;;5038788;28;20090;-64
2023/09/25 07:03:29;;;;;;;5.80;1.83;;;17.80;99.90;;;;;;5042420;28;20108;-65
2023/09/25 07:05:55;;;;;;;5.55;1.98;;;17.80;99.90;;;;;;5036488;28;20501;-65
2023/09/25 07:08:21;;;;;;;4.28;1.90;;;17.90;99.90;;;;;;5043055;28;20021;-65
2023/09/25 07:10:48;;;;;;;4.45;1.90;;;18.00;99.90;;;;;;5033882;28;20036;-65
2023/09/25 07:13:15;;;;;;;8.52;2.63;;;18.10;99.90;;;;;;5039107;28;20032;-64
2023/09/25 07:15:43;;;;;;;5.85;2.13;;;18.10;99.90;;;;;;5045356;28;20013;-63
2023/09/25 07:18:09;;;;;;;8.23;2.72;;;18.10;99.90;;;;;;5042991;28;20021;-64
2023/09/25 07:20:35;;;;;;;6.75;2.60;;;18.10;99.90;;;;;;5045186;28;20091;-64
2023/09/25 07:23:01;;;;;;;5.28;1.85;;;18.10;99.90;;;;;;5046053;28;20489;-64
2023/09/25 07:25:26;;;;;;;4.55;2.08;;;18.10;99.90;;;;;;5038076;28;20108;-64
2023/09/25 07:27:52;;;;;;;5.72;2.08;;;18.20;99.90;;;;;;5033905;28;20493;-64
2023/09/25 07:30:18;;;;;;;5.13;2.00;;;18.20;99.90;;;;;;5036818;28;20045;-63
2023/09/25 07:32:43;;;;;;;5.47;1.73;;;18.40;99.90;;;;;;5036269;28;20481;-63
2023/09/25 07:35:11;;;;;;;6.78;1.83;;;18.40;99.90;;;;;;5036834;28;20010;-66
2023/09/25 07:37:41;;;;;;;5.22;1.90;;;18.50;99.90;;;;;;5039377;28;20052;-66
2023/09/25 07:40:13;;;;;;;6.88;1.90;;;18.50;99.90;;;;;;5040174;28;20029;-66
2023/09/25 07:42:40;;;;;;;3.78;1.80;;;18.60;99.90;;;;;;5042066;28;20025;-66
2023/09/25 07:45:09;;;;;;;7.15;2.38;;;18.50;99.90;;;;;;5036524;28;20135;-70
2023/09/25 07:47:38;;;;;;;4.35;1.83;;;18.50;99.90;;;;;;5042591;28;20093;-70
2023/09/25 07:50:10;;;;;;;6.93;2.20;;;18.60;99.90;;;;;;5040050;28;20029;-67
2023/09/25 07:52:38;;;;;;;4.80;1.80;;;18.60;99.90;;;;;;5034430;28;20450;-67
2023/09/25 07:55:07;;;;;;;4.78;1.60;;;18.60;99.90;;;;;;5036186;28;20021;-66
2023/09/25 07:57:35;;;;;;;6.20;2.10;;;18.60;99.90;;;;;;5040017;28;20037;-66
2023/09/25 08:00:09;;;;;;;5.97;1.80;;;18.60;99.90;;;;;;5041941;28;20025;-65
2023/09/25 08:02:39;;;;;;;5.78;2.00;;;18.70;99.90;;;;;;5044641;28;20111;-68
2023/09/25 08:05:06;;;;;;;6.32;1.90;;;18.80;99.90;;;;;;5040245;28;20100;-68
2023/09/25 08:07:32;;;;;;;7.53;1.80;;;18.70;99.90;;;;;;5044688;28;20017;-68
2023/09/25 08:09:59;;;;;;;9.27;2.00;;;18.80;99.90;;;;;;5045352;28;20067;-67
2023/09/25 08:12:25;;;;;;;3.63;1.73;;;18.80;99.90;;;;;;5039596;28;20067;-66
2023/09/25 08:14:51;;;;;;;5.75;1.77;;;18.80;99.90;;;;;;5041455;28;20013;-66
2023/09/25 08:17:16;;;;;;;7.70;1.85;;;18.90;99.90;;;;;;5034115;28;20043;-69
2023/09/25 08:19:42;;;;;;;7.68;1.90;;;18.90;99.90;;;;;;5038708;28;20036;-69
2023/09/25 08:22:08;;;;;;;5.30;1.70;;;19.00;99.90;;;;;;5041246;28;20030;-69
2023/09/25 08:24:33;;;;;;;6.53;1.80;;;19.00;99.90;;;;;;5042732;28;20336;-69
2023/09/25 08:26:59;;;;;;;4.93;2.15;;;19.00;99.90;;;;;;5037339;28;20036;-69
2023/09/25 08:29:25;;;;;;;4.93;1.95;;;19.10;99.90;;;;;;5042442;28;20025;-68
2023/09/25 08:31:51;;;;;;;4.60;1.40;;;19.20;99.90;;;;;;5037516;28;20075;-69
2023/09/25 08:34:17;;;;;;;5.05;1.48;;;19.30;99.90;;;;;;5046911;28;20105;-69
2023/09/25 08:36:42;;;;;;;5.00;1.70;;;19.40;99.90;;;;;;5043779;28;20034;-69
2023/09/25 08:39:10;;;;;;;5.20;1.80;;;19.40;99.90;;;;;;5055846;28;20060;-68
2023/09/25 08:41:39;;;;;;;8.88;1.67;;;19.40;99.90;;;;;;5042196;28;20033;-69
2023/09/25 08:44:05;;;;;;;5.68;1.55;;;19.40;99.90;;;;;;5036820;28;20398;-69
2023/09/25 08:46:31;;;;;;;4.85;1.50;;;19.50;99.90;;;;;;5039814;28;20517;-68
2023/09/25 08:48:59;;;;;;;5.28;1.65;;;19.70;99.90;;;;;;5042555;28;20025;-68
2023/09/25 08:51:25;;;;;;;6.18;1.60;;;19.80;99.90;;;;;;5039259;28;20021;-67
2023/09/25 08:53:51;;;;;;;5.35;1.40;;;19.90;99.90;;;;;;5039541;28;20072;-69
2023/09/25 08:56:18;;;;;;;6.05;1.55;;;20.00;99.90;;;;;;5039849;28;20486;-69
2023/09/25 08:58:45;;;;;;;6.35;1.73;;;20.10;99.90;;;;;;5038117;28;20053;-70
2023/09/25 09:01:11;;;;;;;6.75;1.60;;;20.20;99.90;;;;;;5037010;28;20109;-69
2023/09/25 09:03:37;;;;;;;5.32;1.70;;;20.30;99.90;;;;;;5039354;28;20071;-66
2023/09/25 09:06:03;;;;;;;5.85;1.45;;;20.40;99.90;;;;;;5039425;28;20022;-68
2023/09/25 09:08:29;;;;;;;4.15;1.40;;;20.40;99.90;;;;;;5048164;28;20397;-69
2023/09/25 09:10:55;;;;;;;3.83;1.40;;;20.30;99.90;;;;;;5037414;28;20028;-69
2023/09/25 09:13:24;;;;;;;3.30;1.20;;;20.40;99.90;;;;;;5036474;28;20034;-67
2023/09/25 09:15:49;;;;;;;4.75;1.38;;;20.40;99.90;;;;;;5038500;28;20038;-74
2023/09/25 09:18:24;;;;;;;5.32;1.40;;;20.50;99.90;;;;;;5036465;28;20112;-68
2023/09/25 09:20:50;;;;;;;6.05;1.40;;;20.50;99.90;;;;;;5036675;28;20025;-68
2023/09/25 09:23:16;;;;;;;3.80;1.25;;;20.60;99.90;;;;;;5039148;28;20025;-68
2023/09/25 09:25:48;;;;;;;4.75;1.50;;;20.60;99.90;;;;;;5047350;28;20114;-69
2023/09/25 09:28:13;;;;;;;3.87;1.10;;;20.60;99.90;;;;;;5037548;28;20108;-68
2023/09/25 09:30:41;;;;;;;3.75;1.00;;;20.70;99.90;;;;;;5044613;28;20060;-67
2023/09/25 09:33:10;;;;;;;6.43;1.20;;;20.80;99.90;;;;;;5040090;28;20484;-69
2023/09/25 09:35:37;;;;;;;5.13;1.50;;;20.90;99.90;;;;;;5049860;28;20514;-68
2023/09/25 09:38:05;;;;;;;6.57;1.55;;;20.90;99.90;;;;;;5040211;28;20033;-68
2023/09/25 09:40:31;;;;;;;5.53;1.30;;;21.00;99.90;;;;;;5038515;28;20036;-69
2023/09/25 09:42:58;;;;;;;4.05;1.20;;;21.10;99.90;;;;;;5036038;28;20037;-68
2023/09/25 09:45:27;;;;;;;5.45;1.10;;;21.20;99.90;;;;;;5038411;28;20029;-68
2023/09/25 09:47:54;;;;;;;4.88;1.25;;;21.20;99.90;;;;;;5038006;28;20017;-66
2023/09/25 09:50:28;;;;;;;4.78;1.50;;;21.20;99.90;;;;;;5038582;28;20022;-68
2023/09/25 09:52:56;;;;;;;6.43;1.20;;;21.10;99.90;;;;;;5037399;28;20029;-67
2023/09/25 09:55:23;;;;;;;4.18;1.35;;;21.00;99.90;;;;;;5037338;28;20116;-67
2023/09/25 09:57:50;;;;;;;4.00;1.27;;;21.00;99.90;;;;;;5038540;28;20564;-67
2023/09/25 10:00:16;;;;;;;5.75;1.40;;;21.10;99.90;;;;;;5036629;28;21176;-67
2023/09/25 10:02:43;;;;;;;5.53;1.30;;;21.30;99.90;;;;;;5036065;28;20037;-68
2023/09/25 10:05:17;;;;;;;6.43;1.48;;;21.40;99.90;;;;;;5036293;28;20079;-66
2023/09/25 10:08:05;;;;;;;2.85;1.00;;;21.40;99.90;;;;;;5036539;28;20029;-67
2023/09/25 10:10:31;;;;;;;3.38;1.10;;;21.40;99.90;;;;;;5029164;28;20034;-65
2023/09/25 10:12:57;;;;;;;5.47;1.13;;;21.20;99.90;;;;;;5038323;28;20018;-66
2023/09/25 10:15:25;;;;;;;5.32;1.23;;;21.00;99.90;;;;;;5048063;28;20032;-66
2023/09/25 10:17:53;;;;;;;5.60;1.42;;;21.00;99.90;;;;;;5038230;28;20018;-66
2023/09/25 10:20:30;;;;;;;5.47;1.35;;;21.10;99.90;;;;;;5037569;28;20431;-66
2023/09/25 10:23:10;;;;;;;4.78;1.38;;;21.30;99.90;;;;;;5037966;28;20104;-66
2023/09/25 10:25:50;;;;;;;6.00;1.30;;;21.50;99.90;;;;;;5037771;28;20025;-66
2023/09/25 10:28:21;;;;;;;4.05;1.58;;;21.60;99.90;;;;;;5037519;28;20386;-66
2023/09/25 10:30:48;;;;;;;5.43;1.40;;;21.80;99.90;;;;;;5045379;28;20025;-67
2023/09/25 10:33:20;;;;;;;6.45;1.40;;;21.80;99.90;;;;;;5039837;28;20017;-67
2023/09/25 10:35:49;;;;;;;4.03;1.50;;;21.90;99.90;;;;;;5045911;28;20029;-68
2023/09/25 10:38:28;;;;;;;5.68;1.27;;;22.00;99.90;;;;;;5043516;28;20027;-70
2023/09/25 10:40:55;;;;;;;4.50;1.25;;;22.00;99.90;;;;;;5041827;28;20033;-76
2023/09/25 10:43:24;;;;;;;3.75;1.20;;;22.10;99.90;;;;;;5035506;28;20040;-68
2023/09/25 10:45:53;;;;;;;5.38;1.50;;;22.00;99.90;;;;;;5037426;28;20037;-69
2023/09/25 10:48:20;;;;;;;3.40;1.40;;;22.00;99.90;;;;;;5037131;28;20026;-68
2023/09/25 10:50:46;;;;;;;5.82;1.30;;;21.80;99.90;;;;;;5035398;28;20021;-68
2023/09/25 10:53:13;;;;;;;5.57;1.63;;;21.70;99.90;;;;;;5036499;28;20018;-67
2023/09/25 10:55:40;;;;;;;2.75;1.15;;;21.70;99.90;;;;;;5036612;28;20021;-67
2023/09/25 10:58:07;;;;;;;4.65;1.25;;;21.70;99.90;;;;;;5037360;28;20045;-63
2023/09/25 11:00:37;;;;;;;4.95;1.70;;;21.60;99.90;;;;;;5042442;28;20103;-65
2023/09/25 11:03:04;;;;;;;6.40;1.50;;;21.60;99.90;;;;;;5040386;28;20036;-65
2023/09/25 11:05:31;;;;;;;6.25;1.67;;;21.60;99.90;;;;;;5044303;28;20041;-65
2023/09/25 11:07:57;;;;;;;6.07;1.20;;;21.60;99.90;;;;;;5036923;28;20038;-65
2023/09/25 11:10:30;;;;;;;4.20;1.40;;;21.60;99.90;;;;;;5037013;28;20076;-65
2023/09/25 11:12:57;;;;;;;6.30;1.40;;;21.80;99.90;;;;;;5037581;28;20049;-67
2023/09/25 11:15:26;;;;;;;5.07;1.27;;;21.80;99.90;;;;;;5022691;28;20030;-65
2023/09/25 11:17:52;;;;;;;4.85;1.40;;;21.80;99.90;;;;;;5034460;28;20025;-65
2023/09/25 11:20:18;;;;;;;5.88;1.30;;;21.80;99.90;;;;;;5033710;28;20029;-65
2023/09/25 11:22:48;;;;;;;3.63;1.40;;;21.80;99.90;;;;;;5036116;28;20524;-64
2023/09/25 11:25:17;;;;;;;2.70;1.10;;;21.80;99.90;;;;;;5036255;28;20021;-64
2023/09/25 11:27:58;;;;;;;3.10;1.10;;;21.80;99.90;;;;;;5036108;28;20033;-64
2023/09/25 11:30:32;;;;;;;5.65;1.27;;;21.90;99.90;;;;;;5036357;28;20025;-63
2023/09/25 11:33:06;;;;;;;5.85;1.13;;;21.90;99.90;;;;;;5037093;28;20064;-63
2023/09/25 11:35:37;;;;;;;4.45;1.30;;;22.10;99.90;;;;;;5036990;28;20021;-64
2023/09/25 11:38:12;;;;;;;4.40;1.23;;;22.20;99.90;;;;;;5037029;28;20017;-64
2023/09/25 11:40:38;;;;;;;4.15;1.20;;;22.10;99.90;;;;;;5036684;28;20032;-64
2023/09/25 11:43:05;;;;;;;5.57;1.65;;;22.10;99.90;;;;;;5037308;28;20068;-65
2023/09/25 11:45:31;;;;;;;4.40;1.00;;;22.10;99.90;;;;;;5037412;28;20474;-64
2023/09/25 11:47:57;;;;;;;4.10;1.10;;;21.90;99.90;;;;;;5035748;28;20033;-64
2023/09/25 11:50:22;;;;;;;5.00;1.20;;;21.80;99.90;;;;;;5037343;28;20022;-65
2023/09/25 11:52:48;;;;;;;3.83;1.10;;;21.80;99.90;;;;;;5037278;28;20026;-64
2023/09/25 11:55:14;;;;;;;3.85;1.13;;;21.90;99.90;;;;;;5039495;28;20021;-64
2023/09/25 11:57:44;;;;;;;4.00;0.90;;;22.00;99.90;;;;;;5037018;28;20053;-64
2023/09/25 12:00:19;;;;;;;5.03;1.30;;;21.90;99.90;;;;;;5037296;28;20024;-64
2023/09/25 12:02:46;;;;;;;3.00;0.93;;;21.90;99.90;;;;;;5035768;28;20018;-64
2023/09/25 12:05:13;;;;;;;2.88;0.90;;;21.90;99.90;;;;;;5037214;28;20021;-64
2023/09/25 12:07:40;;;;;;;6.25;1.70;;;22.00;99.90;;;;;;5036614;28;20021;-65
2023/09/25 12:10:07;;;;;;;3.50;1.30;;;21.90;99.90;;;;;;5036611;28;20030;-65
2023/09/25 12:12:36;;;;;;;4.70;1.20;;;21.90;99.90;;;;;;5036574;28;20111;-65
2023/09/25 12:15:03;;;;;;;4.63;1.60;;;21.90;99.90;;;;;;5036777;28;20075;-64
2023/09/25 12:17:30;;;;;;;5.43;1.40;;;22.00;99.90;;;;;;5036471;28;20021;-64
2023/09/25 12:19:57;;;;;;;4.28;1.27;;;22.20;99.90;;;;;;5037169;28;20343;-64
2023/09/25 12:22:23;;;;;;;4.57;1.40;;;22.40;99.90;;;;;;5036914;28;20033;-64
2023/09/25 12:24:49;;;;;;;2.75;1.10;;;22.80;99.90;;;;;;5035175;28;20088;-64
2023/09/25 12:27:14;;;;;;;4.03;1.25;;;23.00;99.90;;;;;;5035390;28;20613;-64
2023/09/25 12:29:40;;;;;;;3.88;1.50;;;23.10;99.90;;;;;;5036930;28;20037;-64
2023/09/25 12:32:06;;;;;;;3.75;1.30;;;23.10;99.90;;;;;;5036790;28;20030;-64
2023/09/25 12:34:31;;;;;;;2.40;1.00;;;23.20;99.90;;;;;;5037158;28;20398;-64
2023/09/25 12:36:57;;;;;;;2.78;1.05;;;23.40;99.90;;;;;;5036622;28;20452;-65
2023/09/25 12:39:23;;;;;;;4.97;1.20;;;23.60;99.90;;;;;;5036585;28;20029;-65
2023/09/25 12:41:48;;;;;;;2.92;1.00;;;23.60;99.90;;;;;;5036571;28;20022;-65
2023/09/25 12:44:14;;;;;;;4.97;1.10;;;23.60;99.90;;;;;;5036239;28;20026;-65
2023/09/25 12:46:40;;;;;;;3.50;1.33;;;23.60;99.90;;;;;;5036674;28;20542;-64